createdAt,value
2023-12-14T09:07:29.262Z,4.40
2023-12-14T09:12:23.075Z,4.50
2023-12-14T09:17:16.922Z,4.80
2023-12-14T09:22:10.759Z,4.90
2023-12-14T09:27:06.225Z,5.10
2023-12-14T09:32:00.012Z,5.30
2023-12-14T09:36:55.954Z,5.50
2023-12-14T09:41:53.402Z,5.60
2023-12-14T09:46:50.838Z,5.70
2023-12-14T09:51:44.938Z,5.90
2023-12-14T09:56:47.780Z,6.00
2023-12-14T10:01:43.220Z,6.20
2023-12-14T10:06:39.540Z,6.20
2023-12-14T10:11:33.390Z,6.20
2023-12-14T10:16:32.160Z,6.40
2023-12-14T10:21:25.969Z,6.40
2023-12-14T10:26:21.777Z,6.40
2023-12-14T10:31:16.893Z,6.30
2023-12-14T10:36:12.023Z,6.20
2023-12-14T10:41:08.591Z,6.30
2023-12-14T10:46:05.445Z,6.30
2023-12-14T10:51:02.400Z,6.30
2023-12-14T10:55:58.697Z,6.30
2023-12-14T11:01:03.970Z,6.40
2023-12-14T11:06:06.667Z,6.50
2023-12-14T11:11:12.316Z,6.60
2023-12-14T11:16:08.565Z,6.70
2023-12-14T11:21:03.554Z,6.70
2023-12-14T11:26:00.724Z,6.80
2023-12-14T11:30:56.100Z,6.90
2023-12-14T11:35:54.239Z,6.90
2023-12-14T11:40:49.057Z,7.10
2023-12-14T11:45:43.910Z,7.30
2023-12-14T11:50:37.804Z,7.40
2023-12-14T11:55:34.258Z,7.60
2023-12-14T12:00:29.779Z,7.60
2023-12-14T12:05:39.159Z,7.80
2023-12-14T12:10:35.008Z,7.80
2023-12-14T12:15:28.780Z,7.90
2023-12-14T12:20:22.420Z,7.90
2023-12-14T12:25:16.308Z,8.30
2023-12-14T12:30:14.530Z,8.70
2023-12-14T12:35:09.695Z,8.80
2023-12-14T12:40:03.583Z,9.00
2023-12-14T12:44:57.399Z,9.50
2023-12-14T12:49:52.779Z,10.00
2023-12-14T12:54:46.622Z,10.20
2023-12-14T12:59:40.264Z,10.40
2023-12-14T13:04:34.432Z,10.90
2023-12-14T13:09:29.964Z,10.90
2023-12-14T13:14:24.052Z,10.60
2023-12-14T13:19:18.466Z,10.50
2023-12-14T13:24:12.347Z,10.00
2023-12-14T13:29:08.067Z,9.70
2023-12-14T13:34:01.780Z,9.20
2023-12-14T13:38:55.532Z,8.60
2023-12-14T13:43:49.168Z,8.30
2023-12-14T13:48:44.453Z,8.00
2023-12-14T13:53:38.273Z,7.80
2023-12-14T13:58:32.057Z,7.60
2023-12-14T14:03:27.416Z,7.40
2023-12-14T14:08:22.927Z,7.20
2023-12-14T14:13:16.584Z,7.00
2023-12-14T14:18:10.954Z,7.00
2023-12-14T14:23:06.076Z,6.80
2023-12-14T14:28:02.260Z,6.60
2023-12-14T14:32:56.196Z,6.40
2023-12-14T14:37:51.512Z,6.30
2023-12-14T14:42:45.608Z,6.30
2023-12-14T14:47:43.190Z,6.10
2023-12-14T14:52:37.774Z,6.00
2023-12-14T14:57:33.173Z,5.90
2023-12-14T15:02:26.988Z,5.70
2023-12-14T15:07:22.588Z,5.50
2023-12-14T15:12:16.320Z,5.50
2023-12-14T15:17:10.102Z,5.40
2023-12-14T15:22:03.835Z,5.30
2023-12-14T15:26:59.826Z,5.20
2023-12-14T15:31:54.670Z,5.00
2023-12-14T15:36:48.530Z,4.90
2023-12-14T15:41:42.246Z,4.80
2023-12-14T15:46:37.522Z,4.80
2023-12-14T15:51:31.136Z,4.70
